Airbus A330-300 despista-se na aterragem em Katmandu. (com vídeo da evacuação)

Data:

https://arabaviationsummit.net/spot_img

Um Airbus A330-300 da Turkish Airlines, registo TC-JOC, que realizava o voo TK726 de Istambul, na Turquia, para Katmandu, no Nepal, com 227 passageiros e 11 tripulantes a bordo, sofreu uma saída de pista com colapso do trem dianteiro hoje as 07h11 horas locais, (01:26 Hora Zulu).

Momentos antes a tripulação tentou uma primeira aterrizagem à pista 02, tendo que borregar (ou arremeter) devido à fraca visibilidade.

Na segunda tentativa e após contacto com a pista a aeronave saiu de pista à esquerda, indo imobilizar-se já sobre um terreno que rodeia a pista, com o trem colapsado.

A tripulação iniciou de imediato um evacuação de emergência sem incidentes graves. Autoridades locais reportaram 4 feridos ligeiros.

A autoridade nacional de aviação civil nepalesa adiantou ainda que um dos pneus do trem principal rebentou no contacto da aeronave com a pista, podendo ser um dos factores  responsáveis pela súbita perda de controlo e despiste.

A Turkish Airlines, em comunicado, já lamentou o sucedido, e declarou que todos os passageiros e tripulação se encontram em segurança depois de uma evacuação bem sucedida. Anunciou que será prestado todo o acompanhamento necessário aos passageiros no local do incidente, que é a sua prioridade antes de iniciar o inquérito técnico, já em curso, para averiguar as causas do despiste.

A aeronave tem o numero de série 1522, e teve o seu primeiro voo a 29 de Março de 2014. Tem cerca de 8 meses de actividade.

Metar no momento do incidente

VNKT 040250Z 00000KT 3000 BR FEW015 09/09 Q1016 NOSIG

VNKT 032350Z 00000KT 0500 FG VV/// 08/07 Q1013 NOSIG

Fotos : Neil Nepal no Twitter : @neilpande

Fontes : FlightRadar / Aviation Herald

Compartilhar publicação:

REGISTE-SE

spot_img

Popular

spot_img

Mais como isso
Relacionado

Duas propostas admitidas para o concurso de exploração e gestão do novo Aeroporto Internacional de Luanda

Uma das propostas foi apresentada por um consórcio constituído...

Avião de passageiros cai perto de Moscovo durante voo de teste – Morreram os três tripulantes

Um avião de passageiros 'Sukhoi Superjet-100' da companhia Gazprom...

Membros do Governo e da ANA fazem primeira visita técnica ao Campo de Tiro de Alcochete

O Ministério das Infraestruturas e Habitação (MIH) e a...